Flight Track Log - Related Links

Times and Time Zones

All times are in EDT time to prevent confusion due to time zone crossing. See the FDX55 flight status page for this flight to view local times or setup timezone preferences in your user account.

Time Position Orientation Groundspeed Altitude Reporting Facility
EDT Latitude Longitude Course Direction KTS MPH feet Rate Location/Type
Fri 08:33:06 AM 25.7981 -80.2744 94° East 120 138 1,100  Level Miami Center
Fri 08:33:27 AM 25.7967 -80.2536 94° East 147 169 2,000 1,869 Climbing Miami Center
Fri 08:34:07 AM 25.7786 -80.2208 121° Southeast 225 259 3,000 2,500 Climbing Miami Center
Fri 08:34:27 AM 25.7686 -80.1931 112° Southeast 260 299 4,500 4,426 Climbing Miami Center
Fri 08:35:08 AM 25.7406 -80.1436 122° Southeast 277 319 7,500 4,100 Climbing Miami Center
Fri 08:35:27 AM 25.7347 -80.1206 106° East 269 310 8,600 2,506 Climbing Miami Center
Fri 08:36:27 AM 25.7158 -80.0300 103° East 321 369 10,800 2,650 Climbing Miami Center
Fri 08:37:27 AM 25.6933 -79.9164 102° East 338 389 13,900 3,100 Climbing Miami Center
Fri 08:38:27 AM 25.6686 -79.7983 103° East 373 429 17,000 2,900 Climbing Miami Center
Fri 08:39:27 AM 25.6458 -79.6686 101° East 403 464 19,700 2,650 Climbing Miami Center
Fri 08:40:27 AM 25.6108 -79.5364 106° East 418 481 22,300 2,350 Climbing Miami Center
Fri 08:41:27 AM 25.5839 -79.3978 102° East 443 510 24,400 1,300 Climbing Miami Center
Fri 08:42:27 AM 25.5508 -79.2542 104° East 464 534 24,900 250 Climbing Miami Center
Fri 08:43:27 AM 25.5194 -79.1292 106° East 451 519 24,900 50 Level Miami Center
Fri 08:44:27 AM 25.4792 -79.0272 114° Southeast 408 470 25,000 50 Climbing Miami Center
Fri 08:45:27 AM 25.4219 -78.9411 126° Southeast 357 411 25,000 200 Level Miami Center
Fri 08:46:27 AM 25.3603 -78.8642 132° Southeast 342 394 25,400 650 Climbing Miami Center
Fri 08:47:27 AM 25.2842 -78.7733 133° Southeast 367 422 26,300 900 Climbing Miami Center
Fri 08:48:27 AM 25.2019 -78.6664 130° Southeast 413 475 27,200 1,050 Climbing Miami Center
Fri 08:49:27 AM 25.1072 -78.5547 133° Southeast 464 534 28,400 1,850 Climbing Miami Center
Fri 08:50:27 AM 25.0164 -78.4389 131° Southeast 490 564 30,900 2,200 Climbing Miami Center
Fri 08:51:27 AM 24.9214 -78.3253 133° Southeast 496 571 32,800 1,650 Climbing Miami Center
Fri 08:52:27 AM 24.8286 -78.2144 133° Southeast 501 577 34,200 1,000 Climbing Miami Center
Fri 08:53:39 AM 24.7333 -78.0967 132° Southeast 501 577 35,000 364 Climbing Miami Center
Fri 08:54:39 AM 24.6197 -77.9561 132° Southeast 501 577 35,000  Level Miami Center
Fri 08:55:39 AM 24.5264 -77.8411 132° Southeast 501 577 35,000  Level Miami Center
Fri 08:56:39 AM 24.4308 -77.7261 132° Southeast 506 582 35,000  Level Miami Center
Fri 08:57:39 AM 24.3353 -77.6092 132° Southeast 506 582 35,000  Level Miami Center
Fri 08:58:39 AM 24.2419 -77.4969 132° Southeast 506 582 35,000  Level Miami Center
Fri 08:59:39 AM 24.1461 -77.3781 131° Southeast 506 582 35,000  Level Miami Center
Fri 09:00:39 AM 24.0525 -77.2639 132° Southeast 506 582 35,000  Level Miami Center
Fri 09:01:39 AM 23.9544 -77.1522 134° Southeast 506 582 35,000  Level Miami Center
Fri 09:02:39 AM 23.8711 -77.0497 132° Southeast 506 582 35,000  Level Miami Center
Fri 09:03:39 AM 23.7750 -76.9339 132° Southeast 501 577 35,000  Level Miami Center
Fri 09:04:39 AM 23.6811 -76.8203 132° Southeast 501 577 35,000  Level Miami Center
Fri 09:05:39 AM 23.5869 -76.7092 133° Southeast 501 577 35,000  Level Miami Center
Fri 09:06:39 AM 23.4906 -76.5939 132° Southeast 501 577 35,000  Level Miami Center
Fri 09:07:39 AM 23.3964 -76.4831 133° Southeast 501 577 35,000  Level Miami Center
Fri 09:08:39 AM 23.3019 -76.3703 132° Southeast 501 577 35,000  Level Miami Center
Fri 09:09:39 AM 23.1928 -76.2464 134° Southeast 506 582 35,000  Level Miami Center
Fri 09:10:39 AM 23.0983 -76.1339 132° Southeast 506 582 35,000  Level Miami Center
Fri 09:11:39 AM 23.0036 -76.0217 133° Southeast 506 582 35,000  Level Miami Center
Fri 09:12:39 AM 22.9069 -75.9094 133° Southeast 501 577 35,000  Level Miami Center
Fri 09:13:39 AM 22.8122 -75.7997 133° Southeast 501 577 35,000  Level Miami Center
Fri 09:14:39 AM 22.7153 -75.6881 133° Southeast 501 577 35,000  Level Miami Center
Fri 09:15:39 AM 22.6203 -75.5764 133° Southeast 501 577 35,000  Level Miami Center
Fri 09:16:39 AM 22.5253 -75.4669 133° Southeast 501 577 35,000  Level Miami Center
Fri 09:17:39 AM 22.4303 -75.3556 133° Southeast 501 577 35,000  Level Miami Center
Fri 09:18:39 AM 22.3331 -75.2444 133° Southeast 501 577 35,000  Level Miami Center
Fri 09:20:00 AM 22.2157 -75.1072 133° Southeast  Level FlightAware Approximate
Fri 09:21:39 AM 22.0328 -74.9347 140° Southeast 501 577 35,000  Level Miami Center
Fri 09:22:39 AM 21.9250 -74.8356 140° Southeast 501 577 35,000  Level Miami Center
Fri 09:23:39 AM 21.8192 -74.7386 140° Southeast 506 582 35,000  Level Miami Center
Fri 09:24:39 AM 21.7156 -74.6353 137° Southeast 506 582 35,000  Level Miami Center
Fri 09:25:39 AM 21.6075 -74.5367 140° Southeast 506 582 35,000  Level Miami Center
Fri 09:26:39 AM 21.5017 -74.4381 139° Southeast 506 582 35,000  Level Miami Center
Fri 09:27:00 AM 21.5370 -74.4771 140° Southeast  Level FlightAware Approximate
Fri 09:27:39 AM 21.3936 -74.3442 141° Southeast 506 582 35,000  Level Miami Center
Fri 09:28:39 AM 21.3003 -74.2592 140° Southeast 501 577 34,900  Descending Miami Center
Fri 09:29:39 AM 21.1922 -74.1611 140° Southeast 501 577 35,000 50 Climbing Miami Center
Fri 09:30:39 AM 21.0861 -74.0631 139° Southeast 506 582 35,000  Level Miami Center
Fri 09:31:39 AM 20.9778 -73.9675 141° Southeast 506 582 35,000  Level Miami Center
Fri 09:32:39 AM 20.8717 -73.8719 140° Southeast 506 582 35,000  Level Miami Center
Fri 09:33:39 AM 20.7633 -73.7744 140° Southeast 506 582 35,000  Level Miami Center
Fri 09:34:39 AM 20.6592 -73.6772 139° Southeast 506 582 35,000  Level Miami Center
Fri 09:35:39 AM 20.5528 -73.5822 140° Southeast 506 582 35,000  Level Miami Center
Fri 09:36:39 AM 20.4422 -73.4853 141° Southeast 506 582 35,000  Level Miami Center
Fri 09:37:39 AM 20.3358 -73.3906 140° Southeast 506 582 35,000  Level Miami Center
Fri 09:38:39 AM 20.2294 -73.2936 139° Southeast 506 582 35,000  Level Miami Center
Fri 09:39:39 AM 20.1147 -73.2039 144° Southeast 506 582 35,000  Level Miami Center
Fri 09:40:39 AM 19.9900 -73.1322 152° Southeast 506 582 35,000  Level Miami Center
Fri 09:42:00 AM 19.8390 -73.0428 151° Southeast  Level FlightAware Approximate
Fri 09:49:00 AM 19.0438 -72.6040 153° Southeast  Level FlightAware Approximate
Fri 09:50:00 AM 18.9299 -72.5420 153° Southeast  Level FlightAware Approximate
Fri 09:51:00 AM 18.8161 -72.4801 153° Southeast  Level FlightAware Approximate
Fri 09:52:00 AM 18.7022 -72.4183 153° Southeast  Level FlightAware Approximate
Fri 09:53:00 AM 18.5883 -72.3565 153° Southeast  Level FlightAware Approximate
Fri 09:54:00 AM 18.4743 -72.2949 153° Southeast  Level FlightAware Approximate
Fri 09:55:00 AM 18.3604 -72.2333 153° Southeast  Level FlightAware Approximate
Fri 09:56:00 AM 18.2464 -72.1718 153° Southeast  Level FlightAware Approximate
Fri 09:57:00 AM 18.1325 -72.1104 153° Southeast  Level FlightAware Approximate
Fri 09:58:00 AM 18.0184 -72.0490 153° Southeast  Level FlightAware Approximate
Fri 09:59:00 AM 17.9044 -71.9877 153° Southeast  Level FlightAware Approximate
Fri 10:00:00 AM 17.7904 -71.9266 153° Southeast  Level FlightAware Approximate
Fri 10:01:00 AM 17.6763 -71.8654 153° Southeast  Level FlightAware Approximate
Fri 10:02:00 AM 17.5623 -71.8044 153° Southeast  Level FlightAware Approximate
Fri 10:03:00 AM 17.4482 -71.7435 153° Southeast  Level FlightAware Approximate
Fri 10:04:00 AM 17.3341 -71.6824 153° Southeast  Level FlightAware Approximate
Fri 10:05:00 AM 17.2203 -71.6209 153° Southeast  Level FlightAware Approximate
Fri 10:06:00 AM 17.1065 -71.5595 153° Southeast  Level FlightAware Approximate
Fri 10:07:00 AM 16.9927 -71.4981 153° Southeast  Level FlightAware Approximate
Fri 10:08:00 AM 16.8788 -71.4369 153° Southeast  Level FlightAware Approximate
Fri 10:09:00 AM 16.7650 -71.3757 153° Southeast  Level FlightAware Approximate
Fri 10:10:00 AM 16.6511 -71.3145 153° Southeast  Level FlightAware Approximate
Fri 10:11:00 AM 16.5372 -71.2535 153° Southeast  Level FlightAware Approximate
Fri 10:12:00 AM 16.4233 -71.1925 153° Southeast  Level FlightAware Approximate
Fri 10:13:00 AM 16.3093 -71.1316 153° Southeast  Level FlightAware Approximate
Fri 10:14:00 AM 16.1954 -71.0708 153° Southeast  Level FlightAware Approximate
Fri 10:15:00 AM 16.0814 -71.0100 153° Southeast  Level FlightAware Approximate
Fri 10:16:00 AM 15.9673 -70.9495 153° Southeast  Level FlightAware Approximate
Fri 10:17:00 AM 15.8530 -70.8895 153° Southeast  Level FlightAware Approximate
Fri 10:18:00 AM 15.7387 -70.8295 153° Southeast  Level FlightAware Approximate
Fri 10:19:00 AM 15.6243 -70.7697 153° Southeast  Level FlightAware Approximate
Fri 10:20:00 AM 15.5099 -70.7098 153° Southeast  Level FlightAware Approximate
Fri 10:21:00 AM 15.3956 -70.6501 153° Southeast  Level FlightAware Approximate
Fri 10:22:00 AM 15.2812 -70.5904 153° Southeast  Level FlightAware Approximate
Fri 10:23:00 AM 15.1668 -70.5308 153° Southeast  Level FlightAware Approximate
Fri 10:24:00 AM 15.0524 -70.4713 153° Southeast  Level FlightAware Approximate
Fri 10:25:00 AM 14.9379 -70.4118 153° Southeast  Level FlightAware Approximate
Fri 10:26:00 AM 14.8235 -70.3524 153° Southeast  Level FlightAware Approximate
Fri 10:27:00 AM 14.7090 -70.2930 153° Southeast  Level FlightAware Approximate
Fri 10:28:00 AM 14.5945 -70.2337 153° Southeast  Level FlightAware Approximate
Fri 10:29:00 AM 14.4800 -70.1745 153° Southeast  Level FlightAware Approximate
Fri 10:30:00 AM 14.3655 -70.1153 153° Southeast  Level FlightAware Approximate
Fri 10:31:00 AM 14.2510 -70.0562 153° Southeast  Level FlightAware Approximate
Fri 10:32:00 AM 14.1364 -69.9971 153° Southeast  Level FlightAware Approximate
Fri 10:33:00 AM 14.0219 -69.9381 153° Southeast  Level FlightAware Approximate
Fri 10:34:00 AM 13.9073 -69.8792 153° Southeast  Level FlightAware Approximate
Fri 10:35:00 AM 13.7927 -69.8203 153° Southeast  Level FlightAware Approximate
Fri 10:36:00 AM 13.6781 -69.7615 153° Southeast  Level FlightAware Approximate
Fri 10:37:00 AM 13.5635 -69.7028 154° Southeast  Level FlightAware Approximate
Fri 10:38:00 AM 13.4489 -69.6441 154° Southeast  Level FlightAware Approximate
Fri 10:39:00 AM 13.3342 -69.5854 154° Southeast  Level FlightAware Approximate
Fri 10:40:00 AM 13.2196 -69.5268 154° Southeast  Level FlightAware Approximate
Fri 10:41:00 AM 13.1049 -69.4683 154° Southeast  Level FlightAware Approximate
Fri 10:42:00 AM 12.9902 -69.4098 154° Southeast  Level FlightAware Approximate
Fri 10:43:00 AM 12.8755 -69.3514 154° Southeast  Level FlightAware Approximate
Fri 10:44:00 AM 12.7608 -69.2930 154° Southeast  Level FlightAware Approximate
Fri 10:45:00 AM 12.6461 -69.2347 154° Southeast  Level FlightAware Approximate
Fri 10:46:00 AM 12.5314 -69.1764 154° Southeast  Level FlightAware Approximate
Fri 10:47:00 AM 12.4166 -69.1182 154° Southeast  Level FlightAware Approximate
Fri 10:48:00 AM 12.3019 -69.0600 154° Southeast  Level FlightAware Approximate
Fri 10:49:00 AM 12.1871 -69.0019 154° Southeast  Level FlightAware Approximate
Fri 10:50:00 AM 12.0758 -68.9372 153° Southeast  Level FlightAware Approximate
Fri 10:51:00 AM 11.9620 -68.8773 153° Southeast  Level FlightAware Approximate
Fri 10:52:00 AM 11.8481 -68.8174 153° Southeast  Level FlightAware Approximate
Fri 10:53:00 AM 11.7417 -68.7479 166° South  Level FlightAware Approximate
Fri 10:54:00 AM 11.6240 -68.6994 151° Southeast  Level FlightAware Approximate
Fri 10:55:00 AM 11.5123 -68.6356 151° Southeast  Level FlightAware Approximate
Fri 10:56:00 AM 11.3999 -68.5730 152° Southeast  Level FlightAware Approximate
Fri 10:57:00 AM 11.2866 -68.5120 152° Southeast  Level FlightAware Approximate
Fri 10:58:00 AM 11.1736 -68.4507 152° Southeast  Level FlightAware Approximate
Fri 10:59:00 AM 11.0607 -68.3891 152° Southeast  Level FlightAware Approximate
Fri 11:00:00 AM 10.9478 -68.3275 152° Southeast  Level FlightAware Approximate
Fri 11:01:00 AM 10.8350 -68.2657 151° Southeast  Level FlightAware Approximate
Fri 11:02:00 AM 10.7226 -68.2033 151° Southeast  Level FlightAware Approximate
Fri 11:03:00 AM 10.6079 -68.1456 154° Southeast  Level FlightAware Approximate
Fri 11:04:00 AM 10.4978 -68.0811 135° Southeast  Level FlightAware Approximate
Fri 11:05:00 AM 10.3840 -68.0241 157° South  Level FlightAware Approximate
Fri 11:06:00 AM 10.2675 -67.9703 159° South  Level FlightAware Approximate
Fri 11:07:00 AM 10.1508 -67.9171 154° Southeast  Level FlightAware Approximate
Fri 11:08:00 AM 10.1500 -67.9167 154° Southeast  Level FlightAware Approximate
Fri 11:09:00 AM 10.1497 -67.9284 154° Southeast  Level Estimated
Fri 11:10:00 AM 10.1497 -67.9284 154° Southeast  Level Estimated
Fri 11:11:00 AM 10.1497 -67.9284 154° Southeast  Level Estimated
Fri 11:12:00 AM 10.1497 -67.9284 154° Southeast  Level Estimated
Fri 11:13:00 AM 10.1497 -67.9284 154° Southeast  Level Estimated
Fri 11:14:00 AM 10.1497 -67.9284 154° Southeast  Level Estimated
Fri 11:15:00 AM 10.1497 -67.9284 154° Southeast  Level Estimated
Fri 11:16:00 AM 10.1497 -67.9284 154° Southeast  Level Estimated
Fri 11:17:00 AM 10.1497 -67.9284 154° Southeast  Level Estimated
Fri 11:18:00 AM 10.1497 -67.9284 154° Southeast  Level Estimated
Fri 11:19:00 AM 10.1497 -67.9284 154° Southeast  Level Estimated
Fri 11:20:00 AM 10.1497 -67.9284 154° Southeast  Level Estimated
Fri 11:21:00 AM 10.1497 -67.9284 154° Southeast  Level Estimated
Fri 11:22:00 AM 10.1497 -67.9284 154° Southeast  Level Estimated
Fri 11:23:00 AM 10.1497 -67.9284 154° Southeast  Level Estimated
Fri 11:24:00 AM 10.1497 -67.9284 154° Southeast  Level Estimated
Fri 11:25:00 AM 10.1497 -67.9284 154° Southeast  Level Estimated

Login

Don't have an account? Register now (free) for customized features, flight alerts, and more!